Time;durP1;ratioP1;P1;durP2;ratioP2;P2;SDS_P1;SDS_P2;PMS_P1;PMS_P2;Temp;Humidity;BMP_temperature;BMP_pressure;BME280_temperature;BME280_humidity;BME280_pressure;Samples;Min_cycle;Max_cycle;Signal;HPM_P1;HPM_P2
2023/06/29 00:02:12;;;;;;;4.82;3.90;;;;;;;23.28;47.65;101672.69;5027687;28;20045;-68
2023/06/29 00:04:37;;;;;;;4.72;3.83;;;;;;;23.28;47.73;101670.03;5024025;28;20531;-69
2023/06/29 00:07:03;;;;;;;5.20;3.83;;;;;;;23.27;47.67;101666.53;5025431;28;20041;-70
2023/06/29 00:09:29;;;;;;;4.95;3.83;;;;;;;23.27;47.63;101669.19;5027118;28;21025;-72
2023/06/29 00:11:55;;;;;;;4.55;3.72;;;;;;;23.28;47.71;101668.19;5025642;28;20041;-71
2023/06/29 00:14:20;;;;;;;5.32;3.90;;;;;;;23.28;47.94;101672.69;5026572;28;20037;-70
2023/06/29 00:16:50;;;;;;;5.40;3.78;;;;;;;23.28;47.68;101665.53;5021271;28;21468;-71
2023/06/29 00:19:17;;;;;;;5.03;3.92;;;;;;;23.28;47.85;101665.53;5026837;28;20034;-72
2023/06/29 00:21:42;;;;;;;4.63;3.67;;;;;;;23.26;47.70;101669.38;5027284;28;20050;-71
2023/06/29 00:24:11;;;;;;;5.93;3.75;;;;;;;23.26;47.60;101664.88;5026951;28;20033;-72
2023/06/29 00:26:38;;;;;;;4.93;3.78;;;;;;;23.25;47.60;101657.94;5026240;28;20041;-69
2023/06/29 00:29:04;;;;;;;6.18;4.32;;;;;;;23.24;47.70;101658.94;5028839;28;20037;-71
2023/06/29 00:31:29;;;;;;;5.28;4.13;;;;;;;23.26;47.55;101658.75;5023609;28;20053;-70
2023/06/29 00:33:55;;;;;;;5.60;3.92;;;;;;;23.27;47.72;101660.41;5027826;28;20041;-72
2023/06/29 00:36:20;;;;;;;5.10;4.32;;;;;;;23.25;47.67;101654.44;5030745;28;20506;-70
2023/06/29 00:38:46;;;;;;;6.03;4.28;;;;;;;23.23;47.88;101646.66;5022265;28;20060;-72
2023/06/29 00:41:12;;;;;;;5.22;4.03;;;;;;;23.20;47.66;101642.53;5053474;28;20033;-70
2023/06/29 00:43:37;;;;;;;5.72;3.92;;;;;;;23.25;47.52;101649.94;5026155;28;20033;-71
2023/06/29 00:46:07;;;;;;;5.55;4.05;;;;;;;23.25;47.75;101647.28;5021745;28;20044;-71
2023/06/29 00:48:37;;;;;;;5.05;3.67;;;;;;;23.25;47.85;101646.47;5023963;28;20076;-72
2023/06/29 00:51:06;;;;;;;5.97;4.40;;;;;;;23.24;47.68;101643.00;5026022;28;20045;-72
2023/06/29 00:53:31;;;;;;;5.45;3.90;;;;;;;23.24;47.83;101637.69;5025938;28;20661;-71
2023/06/29 00:55:58;;;;;;;5.30;4.03;;;;;;;23.22;48.00;101634.38;5029409;28;20106;-71
2023/06/29 00:58:24;;;;;;;4.95;4.03;;;;;;;23.25;48.00;101639.31;5052451;28;20044;-71
2023/06/29 01:00:50;;;;;;;5.50;4.15;;;;;;;23.24;47.57;101640.34;5026030;28;20072;-72
2023/06/29 01:03:16;;;;;;;5.57;3.80;;;;;;;23.25;47.57;101630.53;5018071;28;20046;-70
2023/06/29 01:05:41;;;;;;;5.93;4.10;;;;;;;23.24;47.75;101624.41;5026860;28;20115;-71
2023/06/29 01:08:16;;;;;;;5.97;3.92;;;;;;;23.20;47.56;101620.47;5025285;28;20045;-72
2023/06/29 01:10:44;;;;;;;6.05;3.80;;;;;;;23.20;47.61;101615.97;5026710;28;20037;-72
2023/06/29 01:13:10;;;;;;;7.90;4.30;;;;;;;23.20;47.97;101617.81;5026957;28;20037;-72
2023/06/29 01:15:39;;;;;;;5.65;4.25;;;;;;;23.23;47.64;101617.44;5028796;28;20060;-69
2023/06/29 01:18:07;;;;;;;5.97;4.20;;;;;;;23.21;47.76;101619.44;5029332;28;20033;-68
2023/06/29 01:20:33;;;;;;;5.43;4.30;;;;;;;23.23;47.67;101614.78;5027197;28;20065;-69
2023/06/29 01:23:17;;;;;;;5.20;4.18;;;;;;;23.21;47.74;101609.66;5032374;28;21699;-69
2023/06/29 01:25:43;;;;;;;7.07;4.72;;;;;;;23.24;47.71;101607.63;5025311;28;20047;-68
2023/06/29 01:28:09;;;;;;;5.75;4.03;;;;;;;23.21;47.76;101608.81;5025411;28;20038;-69
2023/06/29 01:30:48;;;;;;;6.38;4.30;;;;;;;23.22;47.65;101607.81;5024134;28;20044;-71
2023/06/29 01:33:21;;;;;;;5.28;3.90;;;;;;;23.18;47.75;101599.38;5053331;28;20511;-70
2023/06/29 01:35:52;;;;;;;5.43;4.25;;;;;;;23.21;47.59;101595.53;5027629;28;20045;-70
2023/06/29 01:38:26;;;;;;;5.47;4.18;;;;;;;23.18;48.00;101586.09;5021655;28;20111;-71
2023/06/29 01:40:55;;;;;;;5.53;4.18;;;;;;;23.21;47.89;101595.53;5022188;28;20046;-71
2023/06/29 01:43:22;;;;;;;6.70;4.68;;;;;;;23.21;47.78;101592.88;5026996;28;20114;-71
2023/06/29 01:45:48;;;;;;;7.20;5.03;;;;;;;23.20;47.81;101588.56;5055602;28;20069;-70
2023/06/29 01:48:14;;;;;;;6.20;4.25;;;;;;;23.20;47.82;101584.09;5042771;28;20041;-70
2023/06/29 01:50:40;;;;;;;5.10;4.20;;;;;;;23.21;47.89;101590.22;5026993;28;20065;-68
2023/06/29 01:53:06;;;;;;;7.32;4.40;;;;;;;23.21;47.70;101584.91;5025890;28;20532;-68
2023/06/29 01:55:31;;;;;;;4.78;4.07;;;;;;;23.21;47.70;101582.25;5024134;28;20760;-71
2023/06/29 01:57:57;;;;;;;5.40;3.90;;;;;;;23.19;47.63;101577.13;5025199;28;20041;-70
2023/06/29 02:00:23;;;;;;;5.20;4.40;;;;;;;23.19;47.76;101584.28;5026636;28;20061;-69
2023/06/29 02:02:51;;;;;;;5.90;4.45;;;;;;;23.18;47.95;101586.09;5019228;28;20069;-69
2023/06/29 02:05:17;;;;;;;6.43;4.53;;;;;;;23.20;47.81;101584.09;5026905;28;20064;-70
2023/06/29 02:07:43;;;;;;;5.97;4.60;;;;;;;23.20;47.95;101576.13;5021824;28;20048;-70
2023/06/29 02:10:09;;;;;;;5.25;3.97;;;;;;;23.21;47.85;101579.59;5023618;28;20033;-72
2023/06/29 02:12:35;;;;;;;5.70;3.97;;;;;;;23.11;47.81;101561.25;5027966;28;20033;-72
2023/06/29 02:15:01;;;;;;;4.85;4.15;;;;;;;23.19;47.59;101571.81;5025597;28;20030;-70
2023/06/29 02:17:27;;;;;;;5.32;4.25;;;;;;;23.21;47.70;101579.59;5011570;28;20124;-71
2023/06/29 02:19:53;;;;;;;5.35;4.45;;;;;;;23.20;47.53;101576.13;5026590;28;20140;-71
2023/06/29 02:22:18;;;;;;;4.93;4.05;;;;;;;23.21;47.77;101579.59;5025126;28;20769;-71
2023/06/29 02:24:44;;;;;;;5.95;4.35;;;;;;;23.18;47.54;101580.78;5030179;28;20099;-71
2023/06/29 02:27:09;;;;;;;6.05;4.45;;;;;;;23.20;47.74;101583.25;5031622;28;20048;-72
2023/06/29 02:29:34;;;;;;;5.18;3.92;;;;;;;23.19;47.97;101582.44;5025821;28;20570;-71
2023/06/29 02:32:00;;;;;;;6.05;4.28;;;;;;;23.18;47.71;101578.13;5033022;28;20046;-71
2023/06/29 02:34:26;;;;;;;5.10;4.00;;;;;;;23.18;47.77;101574.66;5029328;28;20068;-71
2023/06/29 02:36:52;;;;;;;5.15;4.00;;;;;;;23.20;47.75;101572.63;5033062;28;20032;-71
2023/06/29 02:39:18;;;;;;;5.90;4.22;;;;;;;23.19;47.74;101571.81;5059955;28;20037;-72
2023/06/29 02:41:43;;;;;;;5.50;4.55;;;;;;;23.21;47.56;101571.63;5032597;28;20044;-71
2023/06/29 02:44:09;;;;;;;6.30;4.30;;;;;;;23.19;47.62;101565.66;5058767;28;20044;-72
2023/06/29 02:46:34;;;;;;;5.80;4.43;;;;;;;23.20;47.83;101562.00;5031360;28;20480;-71
2023/06/29 02:49:00;;;;;;;6.47;4.78;;;;;;;23.18;47.95;101553.41;5030116;28;20037;-71
2023/06/29 02:51:25;;;;;;;6.38;4.57;;;;;;;23.16;47.92;101553.59;5031018;28;20037;-72
2023/06/29 02:53:56;;;;;;;6.13;4.68;;;;;;;23.15;47.92;101551.09;5026979;28;20188;-71
2023/06/29 02:56:22;;;;;;;5.90;4.18;;;;;;;23.17;47.69;101551.75;5030958;28;20046;-72
2023/06/29 02:58:47;;;;;;;7.03;4.75;;;;;;;23.18;47.86;101548.91;5028804;28;20034;-71
2023/06/29 03:01:18;;;;;;;5.93;4.03;;;;;;;23.18;47.77;101553.41;5023397;28;20065;-71
2023/06/29 03:03:44;;;;;;;5.38;4.60;;;;;;;23.16;47.80;101550.94;5025420;28;20668;-72
2023/06/29 03:06:11;;;;;;;6.00;4.43;;;;;;;23.15;47.96;101541.28;5029443;28;20045;-71
2023/06/29 03:08:36;;;;;;;6.53;4.72;;;;;;;23.15;47.95;101540.44;5025024;28;20045;-72
2023/06/29 03:11:02;;;;;;;5.93;4.32;;;;;;;23.17;47.90;101539.28;5029670;28;20041;-70
2023/06/29 03:13:27;;;;;;;5.35;4.10;;;;;;;23.14;47.81;101538.81;5028198;28;20033;-70
2023/06/29 03:15:56;;;;;;;5.68;4.45;;;;;;;23.15;47.79;101535.97;5027142;28;20046;-69
2023/06/29 03:18:22;;;;;;;6.90;4.67;;;;;;;23.16;47.74;101537.63;5024068;28;20046;-70
2023/06/29 03:20:47;;;;;;;5.70;4.40;;;;;;;23.17;47.81;101527.84;5028589;28;20033;-69
2023/06/29 03:23:13;;;;;;;6.43;4.53;;;;;;;23.17;47.98;101533.97;5028062;28;20057;-69
2023/06/29 03:25:38;;;;;;;6.38;4.57;;;;;;;23.17;48.02;101533.97;5032759;28;20041;-70
2023/06/29 03:28:04;;;;;;;5.72;4.40;;;;;;;23.16;47.78;101531.47;5030859;28;20049;-69
2023/06/29 03:30:29;;;;;;;5.65;4.40;;;;;;;23.16;47.83;101529.66;5030631;28;20037;-69
2023/06/29 03:32:58;;;;;;;6.47;4.63;;;;;;;23.17;47.79;101527.84;5029260;28;20041;-70
2023/06/29 03:35:23;;;;;;;6.47;4.35;;;;;;;23.16;47.89;101526.16;5031082;28;20068;-70
2023/06/29 03:37:49;;;;;;;5.97;4.40;;;;;;;23.17;47.77;101525.19;5026591;28;20060;-70
2023/06/29 03:40:16;;;;;;;6.70;4.90;;;;;;;23.12;47.89;101514.25;5031184;28;20041;-70
2023/06/29 03:42:41;;;;;;;6.85;4.82;;;;;;;23.15;47.87;101525.34;5026545;28;20510;-70
2023/06/29 03:45:07;;;;;;;5.70;4.45;;;;;;;23.17;47.88;101522.53;5027305;28;20037;-70
2023/06/29 03:47:33;;;;;;;5.40;4.28;;;;;;;23.16;47.91;101534.13;5030176;28;20053;-70
2023/06/29 03:49:58;;;;;;;5.40;4.50;;;;;;;23.17;47.72;101528.66;5025520;28;20045;-70
2023/06/29 03:52:24;;;;;;;6.53;4.70;;;;;;;23.17;47.85;101535.81;5028900;28;20051;-71
2023/06/29 03:54:49;;;;;;;5.75;4.45;;;;;;;23.18;47.75;101538.28;5028018;28;20057;-70
2023/06/29 03:57:15;;;;;;;6.05;4.30;;;;;;;23.17;47.75;101531.31;5026236;28;20056;-70
2023/06/29 03:59:41;;;;;;;6.45;4.53;;;;;;;23.17;47.95;101536.63;5027960;28;20060;-70
2023/06/29 04:02:06;;;;;;;6.97;4.45;;;;;;;23.08;47.91;101519.13;5025292;28;20064;-70
2023/06/29 04:04:32;;;;;;;6.45;4.47;;;;;;;23.17;47.69;101536.63;5029975;28;20060;-70
2023/06/29 04:06:57;;;;;;;6.55;4.38;;;;;;;23.18;47.78;101527.66;5030873;28;20048;-70
2023/06/29 04:09:23;;;;;;;6.05;4.70;;;;;;;23.19;47.89;101523.97;5021451;28;20037;-70
2023/06/29 04:11:48;;;;;;;6.57;4.40;;;;;;;23.18;47.85;101525.00;5031877;28;20600;-70
2023/06/29 04:14:14;;;;;;;6.45;4.85;;;;;;;23.16;48.09;101521.69;5023066;28;20041;-70
2023/06/29 04:16:39;;;;;;;6.72;5.03;;;;;;;23.16;48.00;101515.53;5024370;28;21523;-70
2023/06/29 04:19:05;;;;;;;6.28;4.78;;;;;;;23.18;47.84;101514.38;5026786;28;20107;-71
2023/06/29 04:21:30;;;;;;;5.30;4.50;;;;;;;23.17;47.84;101503.94;5026285;28;20040;-70
2023/06/29 04:23:56;;;;;;;6.07;4.53;;;;;;;23.18;47.63;101509.06;5026658;28;20045;-70
2023/06/29 04:26:22;;;;;;;6.30;4.68;;;;;;;23.18;47.65;101505.56;5028172;28;20457;-70
2023/06/29 04:28:48;;;;;;;6.05;4.38;;;;;;;23.19;47.96;101508.03;5025516;28;20041;-70
2023/06/29 04:31:13;;;;;;;4.90;4.05;;;;;;;23.16;48.04;101503.09;5026455;28;20053;-70
2023/06/29 04:33:39;;;;;;;7.78;4.93;;;;;;;23.21;47.75;101505.19;5026782;28;20037;-70
2023/06/29 04:36:04;;;;;;;6.68;4.40;;;;;;;23.18;47.86;101502.91;5027507;28;20048;-69
2023/06/29 04:38:31;;;;;;;6.57;4.72;;;;;;;23.19;47.76;101512.53;5021011;28;20044;-70
2023/06/29 04:41:03;;;;;;;6.90;4.78;;;;;;;23.18;47.61;101509.06;5028383;28;20386;-71
2023/06/29 04:43:30;;;;;;;6.30;4.70;;;;;;;23.18;47.55;101505.56;5027772;28;20132;-70
2023/06/29 04:45:55;;;;;;;6.82;4.60;;;;;;;23.14;47.93;101494.47;5025999;28;20037;-70
2023/06/29 04:48:28;;;;;;;7.53;4.82;;;;;;;23.21;47.67;101497.22;5026571;28;20037;-70
2023/06/29 04:51:02;;;;;;;6.75;5.07;;;;;;;23.22;47.89;101504.19;5025886;28;20045;-70
2023/06/29 04:53:28;;;;;;;5.65;4.38;;;;;;;23.23;47.72;101507.66;5026036;28;20048;-70
2023/06/29 04:55:55;;;;;;;6.03;4.75;;;;;;;23.24;47.64;101512.78;5026215;28;20097;-71
2023/06/29 04:58:20;;;;;;;6.13;4.85;;;;;;;23.24;47.59;101504.00;5025913;28;20047;-70
2023/06/29 05:00:46;;;;;;;6.60;4.50;;;;;;;23.24;47.64;101498.69;5026996;28;20057;-69
2023/06/29 05:03:11;;;;;;;7.97;5.25;;;;;;;23.27;47.58;101503.63;5025193;28;20040;-69
2023/06/29 05:05:37;;;;;;;6.57;5.00;;;;;;;23.28;47.58;101502.59;5024948;28;20041;-70
2023/06/29 05:08:02;;;;;;;6.43;4.85;;;;;;;23.24;47.50;101504.00;5023185;28;20041;-70
2023/06/29 05:10:28;;;;;;;6.05;4.65;;;;;;;23.27;47.76;101501.78;5026719;28;20038;-70
2023/06/29 05:12:53;;;;;;;6.13;5.03;;;;;;;23.29;47.63;101507.72;5024778;28;20064;-71
2023/06/29 05:15:19;;;;;;;6.03;4.78;;;;;;;23.19;47.56;101481.47;5024806;28;20045;-71
2023/06/29 05:17:45;;;;;;;7.25;5.18;;;;;;;23.29;47.51;101497.09;5027438;28;20041;-71
2023/06/29 05:20:11;;;;;;;6.00;4.57;;;;;;;23.31;47.77;101502.22;5028914;28;20049;-70
2023/06/29 05:22:36;;;;;;;6.47;4.57;;;;;;;23.30;47.77;101493.44;5028847;28;20099;-70
2023/06/29 05:25:02;;;;;;;6.60;5.35;;;;;;;23.31;47.29;101500.41;5032007;28;20041;-70
2023/06/29 05:27:27;;;;;;;6.10;4.63;;;;;;;23.30;47.61;101496.09;5032075;28;20041;-71
2023/06/29 05:29:53;;;;;;;6.75;5.13;;;;;;;23.32;47.40;101495.91;5023166;28;20042;-70
2023/06/29 05:32:19;;;;;;;5.95;4.53;;;;;;;23.32;47.42;101490.59;5027894;28;20986;-70
2023/06/29 05:34:44;;;;;;;6.03;4.78;;;;;;;23.32;47.59;101483.44;5024008;28;20578;-70
2023/06/29 05:37:10;;;;;;;6.85;4.70;;;;;;;23.34;47.53;101491.22;5026503;28;20030;-70
2023/06/29 05:39:35;;;;;;;6.28;4.43;;;;;;;23.34;47.42;101485.91;5025297;28;20044;-70
2023/06/29 05:42:01;;;;;;;6.90;5.07;;;;;;;23.34;47.53;101480.59;5026286;28;20072;-70
2023/06/29 05:44:26;;;;;;;6.55;4.80;;;;;;;23.36;47.38;101478.59;5026357;28;20049;-68
2023/06/29 05:46:52;;;;;;;6.18;4.70;;;;;;;23.36;47.19;101481.25;5023551;28;20720;-69
2023/06/29 05:49:17;;;;;;;7.53;5.13;;;;;;;23.36;47.31;101473.28;5028168;28;20029;-69
2023/06/29 05:51:43;;;;;;;6.03;4.68;;;;;;;23.37;47.27;101470.44;5026127;28;20056;-69
2023/06/29 05:54:08;;;;;;;6.07;4.80;;;;;;;23.38;47.44;101471.25;5024286;28;20072;-69
2023/06/29 05:56:34;;;;;;;6.82;4.75;;;;;;;23.40;47.34;101467.41;5024593;28;20592;-69
2023/06/29 05:58:59;;;;;;;6.18;4.75;;;;;;;23.41;47.15;101469.03;5030357;28;20072;-69
2023/06/29 06:01:25;;;;;;;6.57;4.93;;;;;;;23.40;47.19;101469.22;5027364;28;20050;-70
2023/06/29 06:03:50;;;;;;;6.53;4.88;;;;;;;23.43;47.15;101471.50;5030139;28;20468;-69
2023/06/29 06:06:16;;;;;;;6.40;4.82;;;;;;;23.42;47.05;101470.69;5059206;28;20456;-69
2023/06/29 06:08:41;;;;;;;6.22;4.97;;;;;;;23.44;47.18;101473.97;5023678;28;20045;-69
2023/06/29 06:11:08;;;;;;;7.07;4.97;;;;;;;23.44;47.18;101476.63;5026656;28;20072;-69
2023/06/29 06:13:33;;;;;;;6.03;5.07;;;;;;;23.45;47.34;101472.13;5026542;28;20028;-69
2023/06/29 06:15:59;;;;;;;6.55;4.60;;;;;;;23.46;46.94;101471.13;5028671;28;20045;-69
2023/06/29 06:18:25;;;;;;;7.15;4.88;;;;;;;23.47;47.15;101472.78;5029209;28;20033;-69
2023/06/29 06:20:51;;;;;;;6.50;5.07;;;;;;;23.48;47.24;101469.91;5029501;28;20056;-70
2023/06/29 06:23:16;;;;;;;8.65;5.20;;;;;;;23.49;47.10;101473.41;5031258;28;20041;-71
2023/06/29 06:25:43;;;;;;;6.70;4.88;;;;;;;23.49;47.10;101471.56;5028472;28;20041;-70
2023/06/29 06:28:09;;;;;;;6.63;4.60;;;;;;;23.50;47.11;101469.72;5026794;28;20038;-71
2023/06/29 06:30:35;;;;;;;6.22;4.97;;;;;;;23.51;47.15;101468.72;5027894;28;20045;-71
2023/06/29 06:33:01;;;;;;;6.28;4.88;;;;;;;23.50;47.16;101469.72;5024367;28;20048;-71
2023/06/29 06:35:28;;;;;;;8.25;5.35;;;;;;;23.50;47.11;101467.91;5030769;28;20041;-70
2023/06/29 06:37:54;;;;;;;7.90;4.95;;;;;;;23.51;46.90;101466.88;5027148;28;20042;-70
2023/06/29 06:40:20;;;;;;;8.32;5.32;;;;;;;23.51;46.56;101464.22;5029046;28;20049;-71
2023/06/29 06:42:45;;;;;;;7.30;4.95;;;;;;;23.52;46.60;101465.91;5027905;28;20103;-70
2023/06/29 06:45:11;;;;;;;6.82;4.97;;;;;;;23.52;46.98;101468.56;5029937;28;20041;-71
2023/06/29 06:47:36;;;;;;;7.72;5.05;;;;;;;23.52;47.04;101463.25;5025577;28;20049;-70
2023/06/29 06:50:03;;;;;;;7.10;5.10;;;;;;;23.52;47.03;101459.75;5028388;28;20100;-70
2023/06/29 06:52:29;;;;;;;6.50;5.00;;;;;;;23.54;47.19;101457.72;5026281;28;20037;-70
2023/06/29 06:54:58;;;;;;;7.30;5.22;;;;;;;23.54;47.09;101460.41;5030378;28;20052;-70
2023/06/29 06:57:25;;;;;;;7.90;5.50;;;;;;;23.54;46.81;101463.06;5060497;28;20102;-69
2023/06/29 06:59:50;;;;;;;6.70;4.75;;;;;;;23.51;47.00;101458.09;5026284;28;20038;-69
2023/06/29 07:02:16;;;;;;;6.90;4.95;;;;;;;23.54;46.99;101456.91;5021203;28;20061;-71
2023/06/29 07:04:41;;;;;;;6.43;4.97;;;;;;;23.50;46.77;101459.91;5026793;28;20124;-71
2023/06/29 07:07:07;;;;;;;7.32;4.80;;;;;;;23.55;47.04;101461.22;5031082;28;20048;-70
2023/06/29 07:09:33;;;;;;;6.05;4.90;;;;;;;23.55;47.02;101458.56;5028131;28;20040;-70
2023/06/29 07:11:59;;;;;;;7.07;5.38;;;;;;;23.55;46.96;101459.38;5027354;28;20038;-72
2023/06/29 07:14:25;;;;;;;6.32;4.90;;;;;;;23.55;46.94;101462.03;5025461;28;20249;-71
2023/06/29 07:16:51;;;;;;;6.72;4.88;;;;;;;23.56;47.05;101452.22;5027235;28;20045;-71
2023/06/29 07:19:17;;;;;;;7.72;5.32;;;;;;;23.53;47.27;101456.09;5024355;28;20045;-70
2023/06/29 07:21:42;;;;;;;6.40;4.95;;;;;;;23.56;47.08;101455.72;5027549;28;20045;-72
2023/06/29 07:24:09;;;;;;;6.97;4.93;;;;;;;23.56;46.94;101454.88;5043894;28;20885;-71
2023/06/29 07:26:36;;;;;;;6.97;5.13;;;;;;;23.57;47.10;101459.22;5034271;28;20033;-72
2023/06/29 07:29:03;;;;;;;7.80;4.82;;;;;;;23.56;47.49;101455.72;5031888;28;20045;-71
2023/06/29 07:31:30;;;;;;;7.00;5.40;;;;;;;23.54;47.10;101451.59;5032121;28;20120;-71
2023/06/29 07:33:56;;;;;;;7.55;5.32;;;;;;;23.51;47.02;101444.78;5043215;28;20719;-71
2023/06/29 07:36:24;;;;;;;8.00;5.63;;;;;;;23.48;47.30;101437.19;5028781;28;20045;-70
2023/06/29 07:38:51;;;;;;;9.23;5.80;;;;;;;23.51;47.77;101452.78;5031544;28;20036;-70
2023/06/29 07:41:17;;;;;;;15.07;7.28;;;;;;;23.51;48.46;101448.28;5026819;28;20044;-71
2023/06/29 07:43:47;;;;;;;12.15;7.60;;;;;;;23.51;48.89;101445.63;5033510;28;20124;-71
2023/06/29 07:46:13;;;;;;;11.02;7.65;;;;;;;23.50;48.96;101446.63;5026128;28;20132;-70
2023/06/29 07:48:39;;;;;;;11.77;7.53;;;;;;;23.47;49.17;101443.53;5028145;28;20045;-69
2023/06/29 07:51:05;;;;;;;13.10;8.55;;;;;;;23.45;49.34;101438.41;5026016;28;20041;-70
2023/06/29 07:53:31;;;;;;;14.32;9.52;;;;;;;23.46;49.66;101439.22;5028538;28;20044;-69
2023/06/29 07:55:58;;;;;;;14.63;8.90;;;;;;;23.46;50.05;101431.25;5028683;28;20049;-70
2023/06/29 07:58:23;;;;;;;13.57;9.00;;;;;;;23.48;50.24;101429.22;5027828;28;20542;-70
2023/06/29 08:00:49;;;;;;;14.50;9.75;;;;;;;23.48;50.59;101430.06;5022910;28;20049;-70
2023/06/29 08:03:14;;;;;;;17.70;9.10;;;;;;;23.48;50.94;101427.38;5025591;28;20038;-70
2023/06/29 08:05:40;;;;;;;15.20;9.20;;;;;;;23.47;50.84;101420.44;5025606;28;20479;-71
2023/06/29 08:08:05;;;;;;;15.18;8.68;;;;;;;23.47;50.89;101425.75;5027215;28;20044;-71
2023/06/29 08:10:31;;;;;;;17.65;9.27;;;;;;;23.45;51.31;101413.66;5023405;28;20044;-70
2023/06/29 08:12:56;;;;;;;15.85;9.52;;;;;;;23.48;51.25;101424.72;5026172;28;20041;-70
2023/06/29 08:15:22;;;;;;;13.68;8.80;;;;;;;23.50;51.06;101424.53;5023949;28;20053;-71
2023/06/29 08:17:47;;;;;;;15.45;10.02;;;;;;;23.50;51.09;101419.22;5033277;28;20813;-72
2023/06/29 08:20:13;;;;;;;15.40;8.98;;;;;;;23.49;51.41;101413.09;5066567;28;20030;-72
2023/06/29 08:22:40;;;;;;;16.90;8.45;;;;;;;23.49;51.32;101409.59;5032135;28;20033;-71
2023/06/29 08:25:06;;;;;;;16.67;9.80;;;;;;;23.48;51.38;101405.31;5036362;28;20051;-72
2023/06/29 08:27:32;;;;;;;14.15;9.40;;;;;;;23.55;51.83;101410.69;5036182;28;20160;-71
2023/06/29 08:29:58;;;;;;;15.73;9.43;;;;;;;23.52;51.69;101410.06;5029742;28;20026;-70
2023/06/29 08:32:23;;;;;;;13.75;8.88;;;;;;;23.54;51.57;101412.53;5032359;28;20049;-71
2023/06/29 08:34:49;;;;;;;15.80;9.57;;;;;;;23.55;51.67;101416.84;5038900;28;20050;-70
2023/06/29 08:37:15;;;;;;;15.45;10.00;;;;;;;23.55;51.97;101411.53;5038042;28;20066;-71
2023/06/29 08:39:40;;;;;;;15.73;10.20;;;;;;;23.56;52.00;101412.34;5069924;28;20036;-70
2023/06/29 08:42:06;;;;;;;14.85;9.20;;;;;;;23.56;51.79;101405.19;5033612;28;20510;-71
2023/06/29 08:44:33;;;;;;;15.50;9.32;;;;;;;23.59;51.77;101409.34;5035819;28;20059;-71
2023/06/29 08:47:01;;;;;;;15.23;10.05;;;;;;;23.60;51.94;101403.81;5033293;28;20369;-72
2023/06/29 08:49:27;;;;;;;17.90;10.70;;;;;;;23.58;52.00;101407.69;5024478;28;20054;-71
2023/06/29 08:51:58;;;;;;;14.93;10.02;;;;;;;23.60;52.07;101409.16;5022965;28;20040;-72
2023/06/29 08:54:26;;;;;;;18.02;9.80;;;;;;;23.61;51.80;101407.31;5024653;28;20042;-71
2023/06/29 08:56:51;;;;;;;21.27;11.18;;;;;;;23.62;52.05;101404.47;5031916;28;20538;-70
2023/06/29 08:59:18;;;;;;;14.43;10.50;;;;;;;23.60;52.05;101403.81;5031400;28;20049;-71
2023/06/29 09:01:45;;;;;;;16.48;10.48;;;;;;;23.63;52.23;101402.63;5032963;28;20146;-72
2023/06/29 09:04:11;;;;;;;18.27;10.77;;;;;;;23.62;52.42;101398.31;5031278;28;20441;-71
2023/06/29 09:06:37;;;;;;;19.27;10.88;;;;;;;23.64;52.32;101398.94;5022519;28;20084;-71
2023/06/29 09:09:03;;;;;;;17.90;10.98;;;;;;;23.61;52.26;101386.84;5027446;28;20071;-71
2023/06/29 09:11:35;;;;;;;18.88;11.40;;;;;;;23.63;52.28;101394.63;5022580;28;20084;-70
2023/06/29 09:14:05;;;;;;;17.05;10.75;;;;;;;23.60;52.47;101382.56;5032562;28;20107;-71
2023/06/29 09:16:31;;;;;;;17.27;11.13;;;;;;;23.65;52.46;101392.59;5024534;28;20037;-70
2023/06/29 09:18:57;;;;;;;18.27;10.65;;;;;;;23.63;52.23;101387.50;5027649;28;20515;-71
2023/06/29 09:21:25;;;;;;;19.08;11.20;;;;;;;23.63;52.17;101382.16;5027421;28;20045;-71
2023/06/29 09:23:54;;;;;;;17.67;11.48;;;;;;;23.62;52.65;101388.50;5023733;28;20038;-71
2023/06/29 09:26:23;;;;;;;16.27;10.77;;;;;;;23.66;52.56;101391.59;5026752;28;20036;-71
2023/06/29 09:28:49;;;;;;;21.53;13.67;;;;;;;23.65;52.75;101380.13;5026555;28;20119;-71
2023/06/29 09:31:14;;;;;;;21.48;12.75;;;;;;;23.66;52.99;101384.44;5023433;28;20048;-71
2023/06/29 09:33:40;;;;;;;20.67;11.55;;;;;;;23.64;52.52;101385.66;5029219;28;20373;-71
2023/06/29 09:36:09;;;;;;;20.75;12.77;;;;;;;23.66;52.62;101379.13;5029909;28;20037;-71
2023/06/29 09:38:34;;;;;;;18.97;12.60;;;;;;;23.62;52.67;101371.72;5031015;28;20659;-71
2023/06/29 09:41:02;;;;;;;18.92;11.98;;;;;;;23.67;52.87;101375.44;5033507;28;20475;-72
2023/06/29 09:43:29;;;;;;;21.52;12.98;;;;;;;23.68;52.70;101374.44;5028462;28;20676;-72
2023/06/29 09:46:08;;;;;;;19.48;12.52;;;;;;;23.66;52.87;101376.47;5029155;28;20075;-70
2023/06/29 09:48:43;;;;;;;20.17;13.20;;;;;;;23.64;52.97;101381.16;5027531;28;20102;-72
2023/06/29 09:51:09;;;;;;;19.05;11.43;;;;;;;23.66;52.64;101378.31;5041363;28;20880;-72
2023/06/29 09:53:34;;;;;;;19.92;12.32;;;;;;;23.67;52.57;101383.41;5027571;28;20041;-73
2023/06/29 09:56:01;;;;;;;20.40;12.68;;;;;;;23.65;52.42;101368.69;5029503;28;20041;-72
2023/06/29 09:58:30;;;;;;;19.52;12.07;;;;;;;23.56;52.19;101362.66;5023942;28;20042;-72
2023/06/29 10:00:58;;;;;;;18.77;10.75;;;;;;;23.69;52.29;101378.72;5028829;28;20045;-72
2023/06/29 10:03:27;;;;;;;17.88;11.32;;;;;;;23.70;52.38;101374.28;5034399;28;20060;-71
2023/06/29 10:05:57;;;;;;;18.38;11.73;;;;;;;23.71;52.09;101382.06;5028972;28;20053;-72
2023/06/29 10:08:27;;;;;;;18.88;11.13;;;;;;;23.70;52.30;101379.59;5032782;28;20029;-72
2023/06/29 10:10:59;;;;;;;16.98;10.30;;;;;;;23.70;52.03;101379.59;5025588;28;20045;-72
2023/06/29 10:13:24;;;;;;;18.70;11.43;;;;;;;23.70;52.00;101376.94;5029569;28;20061;-71
2023/06/29 10:15:53;;;;;;;18.05;11.10;;;;;;;23.71;52.07;101379.38;5027313;28;20065;-72
2023/06/29 10:18:32;;;;;;;17.60;11.90;;;;;;;23.69;51.76;101376.06;5025768;28;20578;-72
2023/06/29 10:20:58;;;;;;;18.17;11.55;;;;;;;23.68;51.93;101377.09;5025952;28;20037;-73
2023/06/29 10:23:25;;;;;;;20.73;12.35;;;;;;;23.69;51.97;101373.41;5029735;28;20120;-72
2023/06/29 10:25:51;;;;;;;18.30;11.95;;;;;;;23.69;51.89;101380.56;5027420;28;20761;-72
2023/06/29 10:28:18;;;;;;;19.77;11.93;;;;;;;23.69;51.83;101373.41;5027629;28;20605;-72
2023/06/29 10:30:45;;;;;;;18.80;12.25;;;;;;;23.68;52.24;101381.59;5026880;28;20029;-73
2023/06/29 10:33:11;;;;;;;19.58;12.13;;;;;;;23.66;52.28;101379.13;5028302;28;20043;-73
2023/06/29 10:35:36;;;;;;;19.00;12.18;;;;;;;23.67;52.33;101372.78;5066157;28;20077;-73
2023/06/29 10:38:09;;;;;;;16.33;11.30;;;;;;;23.65;51.97;101374.00;5021788;28;20294;-73
2023/06/29 10:40:46;;;;;;;19.77;12.10;;;;;;;23.66;52.32;101379.13;5027266;28;20043;-71
2023/06/29 10:43:11;;;;;;;19.98;13.95;;;;;;;23.65;52.73;101384.63;5021308;28;20826;-71
2023/06/29 10:45:37;;;;;;;22.92;13.52;;;;;;;23.64;52.59;101383.00;5026769;28;20048;-71
2023/06/29 10:48:05;;;;;;;23.17;12.68;;;;;;;23.61;52.73;101373.56;5022889;28;20058;-71
2023/06/29 10:50:43;;;;;;;22.05;13.95;;;;;;;23.65;52.49;101374.81;5029208;28;20576;-71
2023/06/29 10:53:16;;;;;;;19.80;13.13;;;;;;;23.60;52.38;101371.09;5030233;28;20494;-71
2023/06/29 10:55:55;;;;;;;19.55;12.65;;;;;;;23.64;52.46;101370.53;5026904;28;20037;-72
2023/06/29 10:58:40;;;;;;;26.15;13.45;;;;;;;23.64;52.39;101372.34;5024596;28;20505;-71
2023/06/29 11:01:05;;;;;;;20.45;13.07;;;;;;;23.68;52.32;101365.63;5023880;28;20072;-72
2023/06/29 11:03:32;;;;;;;19.85;13.18;;;;;;;23.67;52.47;101362.16;5026789;28;20843;-72
2023/06/29 11:06:01;;;;;;;17.05;12.15;;;;;;;23.68;52.24;101360.31;5025890;28;21500;-72
2023/06/29 11:08:27;;;;;;;18.08;11.35;;;;;;;23.65;52.18;101347.41;5030640;28;20136;-72
2023/06/29 11:10:52;;;;;;;18.98;12.10;;;;;;;23.70;52.16;101353.81;5028868;28;20487;-72
2023/06/29 11:13:19;;;;;;;18.75;12.30;;;;;;;23.68;52.10;101345.19;5026180;28;20041;-72
2023/06/29 11:15:52;;;;;;;17.95;11.57;;;;;;;23.74;51.87;101348.94;5028563;28;20356;-70
2023/06/29 11:18:19;;;;;;;17.58;11.35;;;;;;;23.73;51.78;101347.28;5022916;28;20052;-70
2023/06/29 11:20:45;;;;;;;18.50;13.23;;;;;;;23.70;51.80;101351.16;5026162;28;20128;-70